Thunder radar more information blitzortung!


Radar de pluja more information rain snow radar


Visita la nostra xarxa de llocs de meteo:

Template documentation
and downloads

And another site



No particular awareness of the weather is required.    There are no Weather-warnings

Pagina Historial Weather Underground text

Diari Resum Abril 7, 2016 Unitats:  Mètric    Imperial   Tant
« Previous Dia
SegĂźent Dia »
Diari Setmana Mensual Anual Personalitzada
  Maxima: Minima: Media:
Temperatura: -17.8 °C -12.9 °C -9.7 °C
Punt de rosada: -17.8 °C -17.2 °C -14.5 °C
Humitat: Humidity % 44 % 57 %
Wind Speed: 0 km/h 0 km/h 9 km/h
RĂ fegues de vent: 0 km/h - -
Vent:- - SE
Pression baro: 0 hPa 34198.6 hPa -
Precipitacions: 0 mm    
Historical Graphs
 
 
Dades de taula per Abril 7, 2016
Temps Temperatura Punt de rosada Pression baro Vent Wind Speed RĂ fegues de vent Humitat Rainfall Rate (Hourly)
-17.8 °C -17.8 °C 0 hPa Calm     Humidity % 0 mm
00:02 -10.1 °C -13.7 °C 34361.1 hPa WSW 6 km/h 6 km/h 65 % 0 mm
00:05 -12 °C -15.6 °C 34327.3 hPa WSW 2.6 km/h 5.1 km/h 64 % 0 mm
00:15 -12.1 °C -15.7 °C 34361.1 hPa SW 5.1 km/h 7.7 km/h 64 % 0 mm
00:25 -12.2 °C -15.8 °C 34361.1 hPa WSW 5.1 km/h 7.7 km/h 64 % 0 mm
00:35 -12.2 °C -15.8 °C 34361.1 hPa WSW 5.1 km/h 7.7 km/h 64 % 0 mm
00:45 -12.3 °C -15.9 °C 34327.3 hPa WSW 2.6 km/h 10.3 km/h 64 % 0 mm
00:55 -12.3 °C -15.9 °C 34327.3 hPa WSW 5.1 km/h 10.3 km/h 64 % 0 mm
01:05 -12.5 °C -16 °C 34327.3 hPa WSW 2.6 km/h 7.7 km/h 65 % 0 mm
01:15 -12.6 °C -16 °C 34327.3 hPa WSW 5.1 km/h 7.7 km/h 65 % 0 mm
01:25 -12.6 °C -16 °C 34361.1 hPa WSW 2.6 km/h 5.1 km/h 65 % 0 mm
01:45 -12.7 °C -16.2 °C 34361.1 hPa WSW 2.6 km/h 7.7 km/h 65 % 0 mm
01:55 -12.8 °C -16.1 °C 34361.1 hPa Calm   5.1 km/h 66 % 0 mm
02:15 -12.8 °C -16.2 °C 34361.1 hPa WSW 5.1 km/h 7.7 km/h 65 % 0 mm
02:25 -12.8 °C -16.1 °C 34361.1 hPa Calm   5.1 km/h 66 % 0 mm
02:35 -12.8 °C -16.2 °C 34361.1 hPa West 5.1 km/h 5.1 km/h 66 % 0 mm
02:45 -12.9 °C -16.3 °C 34361.1 hPa ESE 2.6 km/h 7.7 km/h 66 % 0 mm
02:55 -12.9 °C -16.3 °C 34361.1 hPa WSW 5.1 km/h 5.1 km/h 66 % 0 mm
03:05 -12.7 °C -16 °C 34361.1 hPa NE 2.6 km/h 5.1 km/h 66 % 0 mm
03:15 -12.5 °C -15.9 °C 34361.1 hPa ENE 2.6 km/h 5.1 km/h 66 % 0 mm
03:25 -12.4 °C -15.7 °C 34361.1 hPa ENE 2.6 km/h 5.1 km/h 66 % 0 mm
03:35 -12.3 °C -15.7 °C 34361.1 hPa NE 2.6 km/h 7.7 km/h 66 % 0 mm
03:55 -11.9 °C -15.4 °C 34395 hPa Calm   7.7 km/h 65 % 0 mm
04:15 -11.8 °C -15.4 °C 34361.1 hPa NE 7.7 km/h 12.9 km/h 64 % 0 mm
04:25 -11.7 °C -15.4 °C 34361.1 hPa NE 7.7 km/h 15.6 km/h 63 % 0 mm
04:35 -11.6 °C -15.3 °C 34361.1 hPa NNE 7.7 km/h 10.3 km/h 63 % 0 mm
04:45 -11.5 °C -15.4 °C 34361.1 hPa NE 5.1 km/h 12.9 km/h 62 % 0 mm
04:55 -11.3 °C -15.2 °C 34361.1 hPa NE 12.9 km/h 15.6 km/h 62 % 0 mm
05:05 -11.3 °C -15.2 °C 34361.1 hPa NE 7.7 km/h 15.6 km/h 62 % 0 mm
05:15 -10.9 °C -14.9 °C 34361.1 hPa NE 7.7 km/h 10.3 km/h 62 % 0 mm
05:25 -10.8 °C -14.8 °C 34361.1 hPa NNE 2.6 km/h 10.3 km/h 61 % 0 mm
05:35 -10.3 °C -14.6 °C 34361.1 hPa North 2.6 km/h 10.3 km/h 60 % 0 mm
10:48 -9.9 °C -14.5 °C 34361.1 hPa WSW 14 km/h 14 km/h 58 % 0 mm
10:53 -9.9 °C -14.6 °C 34361.1 hPa WSW 15 km/h 15 km/h 57 % 0 mm
10:58 -10 °C -14.6 °C 34361.1 hPa WNW 6 km/h 6 km/h 58 % 0 mm
11:03 -10.1 °C -14.7 °C 34361.1 hPa WNW 6 km/h 6 km/h 57 % 0 mm
11:08 -10.1 °C -14.8 °C 34361.1 hPa ENE 11.1 km/h 11.1 km/h 57 % 0 mm
11:13 -10.1 °C -14.7 °C 34361.1 hPa NE 11.9 km/h 11.9 km/h 57 % 0 mm
11:18 -10.1 °C -14.7 °C 34361.1 hPa NNE 16.6 km/h 16.6 km/h 57 % 0 mm
11:23 -10 °C -14.7 °C 34361.1 hPa NE 15 km/h 15 km/h 57 % 0 mm
11:28 -10.1 °C -14.7 °C 34361.1 hPa ENE 20.9 km/h 20.9 km/h 57 % 0 mm
11:33 -10 °C -14.7 °C 34361.1 hPa NE 19.2 km/h 19.2 km/h 57 % 0 mm
11:43 -9.7 °C -14.3 °C 34361.1 hPa NNW 6 km/h 6 km/h 57 % 0 mm
11:48 -9.6 °C -14.3 °C 34361.1 hPa ENE 9.8 km/h 9.8 km/h 57 % 0 mm
11:53 -9.4 °C -14.1 °C 34361.1 hPa ENE 11.9 km/h 11.9 km/h 57 % 0 mm
11:58 -9.6 °C -14.4 °C 34361.1 hPa South 9 km/h 9 km/h 56 % 0 mm
12:03 -9.5 °C -14.2 °C 34361.1 hPa WNW 6 km/h 6 km/h 57 % 0 mm
12:08 -9.3 °C -14.1 °C 34361.1 hPa ENE 6.8 km/h 6.8 km/h 56 % 0 mm
12:13 -9.1 °C -13.8 °C 34361.1 hPa NE 6 km/h 6 km/h 57 % 0 mm
12:18 -9 °C -13.8 °C 34361.1 hPa WSW 17.9 km/h 17.9 km/h 56 % 0 mm
12:23 -8.8 °C -13.8 °C 34361.1 hPa WSW 11.9 km/h 11.9 km/h 55 % 0 mm
12:28 -8.6 °C -13.8 °C 34361.1 hPa WSW 15 km/h 15 km/h 54 % 0 mm
12:38 -8.3 °C -13.5 °C 34361.1 hPa North 9 km/h 9 km/h 54 % 0 mm
12:43 -8.3 °C -13.7 °C 34361.1 hPa WSW 9 km/h 9 km/h 53 % 0 mm
12:48 -8.3 °C -13.7 °C 34327.3 hPa WSW 11.9 km/h 11.9 km/h 53 % 0 mm
12:53 -8.1 °C -13.5 °C 34327.3 hPa West 11.9 km/h 11.9 km/h 53 % 0 mm
12:58 -7.9 °C -13.3 °C 34327.3 hPa NNE 6 km/h 6.3 km/h 53 % 0 mm
13:03 -7.9 °C -13.3 °C 34293.4 hPa WNW 11.9 km/h 11.9 km/h 53 % 0 mm
13:08 -7.9 °C -13.5 °C 34293.4 hPa SW 8 km/h 8 km/h 52 % 0 mm
13:13 -7.7 °C -13.4 °C 34293.4 hPa WNW 9 km/h 9 km/h 51 % 0 mm
13:18 -7.7 °C -13.4 °C 34327.3 hPa West 17.9 km/h 17.9 km/h 51 % 0 mm
13:23 -7.7 °C -13.4 °C 34327.3 hPa WSW 12.2 km/h 12.2 km/h 51 % 0 mm
13:28 -7.7 °C -13.6 °C 34327.3 hPa WSW 17.9 km/h 17.9 km/h 50 % 0 mm
13:33 -7.4 °C -13.3 °C 34327.3 hPa WSW 17.9 km/h 17.9 km/h 50 % 0 mm
13:38 -7.3 °C -13.4 °C 34327.3 hPa WSW 17.9 km/h 17.9 km/h 49 % 0 mm
13:43 -7.4 °C -13.4 °C 34327.3 hPa North 17.9 km/h 17.9 km/h 49 % 0 mm
13:48 -7.4 °C -13.7 °C 34327.3 hPa ENE 15.3 km/h 15.3 km/h 48 % 0 mm
13:53 -7.3 °C -13.6 °C 34327.3 hPa WNW 20.9 km/h 20.9 km/h 48 % 0 mm
13:58 -7.1 °C -13.6 °C 34327.3 hPa WSW 15 km/h 15 km/h 47 % 0 mm
14:03 -7.1 °C -13.4 °C 34293.4 hPa NNW 17.9 km/h 17.9 km/h 48 % 0 mm
14:08 -7 °C -13.3 °C 34293.4 hPa East 11.9 km/h 11.9 km/h 48 % 0 mm
14:13 -7.1 °C -13.4 °C 34293.4 hPa NNW 9 km/h 9 km/h 48 % 0 mm
14:23 -6.8 °C -13.1 °C 34293.4 hPa NNE 11.9 km/h 11.9 km/h 48 % 0 mm
14:28 -6.9 °C -13.2 °C 34293.4 hPa NNE 11.9 km/h 11.9 km/h 48 % 0 mm
14:33 -6.9 °C -13.2 °C 34256.2 hPa WNW 15 km/h 15 km/h 48 % 0 mm
14:38 -6.7 °C -13 °C 34256.2 hPa NNW 15 km/h 15 km/h 48 % 0 mm
14:43 -6.7 °C -13.2 °C 34256.2 hPa SW 14.5 km/h 14.5 km/h 47 % 0 mm
14:48 -6.6 °C -13.3 °C 34256.2 hPa NW 11.9 km/h 11.9 km/h 46 % 0 mm
14:53 -6.6 °C -13.3 °C 34256.2 hPa WNW 26.9 km/h 26.9 km/h 46 % 0 mm
14:58 -6.4 °C -13.1 °C 34256.2 hPa West 14 km/h 14 km/h 46 % 0 mm
15:03 -6.4 °C -13.3 °C 34222.3 hPa ESE 11.9 km/h 11.9 km/h 45 % 0 mm
15:08 -6.4 °C -13.2 °C 34222.3 hPa ENE 11.9 km/h 11.9 km/h 45 % 0 mm
15:13 -6.3 °C -13.4 °C 34222.3 hPa SW 11.9 km/h 11.9 km/h 44 % 0 mm
15:18 -6.3 °C -13.2 °C 34256.2 hPa WNW 7.6 km/h 7.6 km/h 45 % 0 mm
15:28 -6.2 °C -13.1 °C 34256.2 hPa NE 6 km/h 6 km/h 45 % 0 mm
15:33 -6 °C -12.9 °C 34256.2 hPa NNW 9.8 km/h 9.8 km/h 45 % 0 mm
15:42 -6.2 °C -13.1 °C 34256.2 hPa WNW 12.7 km/h 12.7 km/h 45 % 0 mm
15:47 -6.4 °C -13.2 °C 34256.2 hPa NE 15.3 km/h 15.3 km/h 45 % 0 mm
15:52 -6.4 °C -13.2 °C 34256.2 hPa SW 11.9 km/h 11.9 km/h 45 % 0 mm
15:57 -6.1 °C -13.2 °C 34256.2 hPa NNE 15 km/h 15 km/h 44 % 0 mm
16:02 -6.2 °C -13.1 °C 34256.2 hPa NNE 12.7 km/h 12.7 km/h 45 % 0 mm
16:07 -6.3 °C -13.2 °C 34222.3 hPa East 9 km/h 9 km/h 45 % 0 mm
16:12 -6.5 °C -13.4 °C 34222.3 hPa WSW 9 km/h 9 km/h 45 % 0 mm
16:17 -6.4 °C -13.2 °C 34222.3 hPa SSW 6.8 km/h 6.8 km/h 45 % 0 mm
16:22 -6.5 °C -13.4 °C 34222.3 hPa ENE 6 km/h 6 km/h 45 % 0 mm
16:32 -6.8 °C -13.5 °C 34222.3 hPa NE 11.9 km/h 11.9 km/h 46 % 0 mm
16:37 -7.1 °C -13.7 °C 34198.6 hPa SE 9 km/h 9 km/h 46 % 0 mm
16:42 -7.2 °C -13.7 °C 34198.6 hPa NE 26.9 km/h 26.9 km/h 47 % 0 mm
16:47 -7.4 °C -13.7 °C 34198.6 hPa ESE 23.8 km/h 23.8 km/h 48 % 0 mm
16:52 -7.4 °C -13.5 °C 34198.6 hPa ESE 15 km/h 15 km/h 49 % 0 mm
17:02 -7.4 °C -13.5 °C 34198.6 hPa ESE 20.9 km/h 20.9 km/h 49 % 0 mm
17:07 -7.3 °C -13.4 °C 34198.6 hPa NNE 11.9 km/h 11.9 km/h 49 % 0 mm
17:12 -7.2 °C -13.5 °C 34198.6 hPa ESE 17.9 km/h 17.9 km/h 48 % 0 mm
17:17 -7.2 °C -13.5 °C 34198.6 hPa ENE 15 km/h 15 km/h 48 % 0 mm
17:22 -7.4 °C -13.4 °C 34198.6 hPa ENE 20.9 km/h 20.9 km/h 49 % 0 mm
17:27 -7.4 °C -13.5 °C 34198.6 hPa NNE 23.8 km/h 23.8 km/h 49 % 0 mm
17:32 -7.4 °C -13.4 °C 34198.6 hPa ESE 11.9 km/h 11.9 km/h 50 % 0 mm
17:37 -7.3 °C -13.2 °C 34198.6 hPa ENE 15 km/h 15 km/h 50 % 0 mm
17:42 -7.4 °C -13.3 °C 34198.6 hPa East 17.9 km/h 17.9 km/h 50 % 0 mm
17:47 -7.6 °C -13.4 °C 34198.6 hPa NNE 15.3 km/h 15.3 km/h 50 % 0 mm
17:52 -7.7 °C -13.6 °C 34198.6 hPa NE 15 km/h 15 km/h 50 % 0 mm
18:02 -7.7 °C -13.6 °C 34198.6 hPa ENE 15 km/h 15 km/h 50 % 0 mm
18:07 -7.9 °C -13.6 °C 34198.6 hPa East 11.9 km/h 11.9 km/h 51 % 0 mm
18:12 -8 °C -13.7 °C 34198.6 hPa ENE 10.3 km/h 10.3 km/h 51 % 0 mm
18:17 -8.1 °C -13.8 °C 34198.6 hPa NNE 18.3 km/h 18.3 km/h 51 % 0 mm
18:22 -8.3 °C -13.8 °C 34198.6 hPa ENE 15 km/h 15 km/h 52 % 0 mm
18:27 -8.5 °C -13.8 °C 34198.6 hPa ESE 17.9 km/h 17.9 km/h 53 % 0 mm
18:32 -8.5 °C -13.8 °C 34198.6 hPa NE 15 km/h 15 km/h 53 % 0 mm
18:37 -8.6 °C -13.8 °C 34198.6 hPa ESE 22 km/h 22 km/h 54 % 0 mm
18:42 -8.7 °C -13.9 °C 34198.6 hPa NE 16.1 km/h 16.1 km/h 54 % 0 mm
18:47 -8.8 °C -13.8 °C 34198.6 hPa ENE 15.3 km/h 15.3 km/h 55 % 0 mm
18:52 -8.8 °C -13.8 °C 34198.6 hPa ENE 17.9 km/h 17.9 km/h 55 % 0 mm
18:57 -8.9 °C -13.9 °C 34198.6 hPa ENE 15 km/h 15 km/h 55 % 0 mm
19:02 -8.9 °C -13.8 °C 34198.6 hPa NNE 9 km/h 9 km/h 56 % 0 mm
19:07 -9.1 °C -14.1 °C 34198.6 hPa ESE 20.9 km/h 20.9 km/h 55 % 0 mm
19:12 -9.1 °C -14 °C 34198.6 hPa ENE 15 km/h 15 km/h 56 % 0 mm
19:15 -11.2 °C -13.9 °C 34293.4 hPa ESE 7.7 km/h 7.7 km/h 72 % 0 mm
19:17 -9.1 °C -14 °C 34198.6 hPa ENE 6.3 km/h 9.8 km/h 56 % 0 mm
19:22 -9.1 °C -14 °C 34198.6 hPa ENE 6.3 km/h 9.8 km/h 56 % 0 mm
19:25 -11.1 °C -13.8 °C 34256.2 hPa East 2.6 km/h 5.1 km/h 72 % 0 mm
19:27 -9.1 °C -14 °C 34198.6 hPa ENE 6.3 km/h 9.8 km/h 56 % 0 mm
19:32 -9.1 °C -14 °C 34198.6 hPa ENE 6.3 km/h 9.8 km/h 56 % 0 mm
19:35 -11.2 °C -14.1 °C 34256.2 hPa ESE 2.6 km/h 5.1 km/h 70 % 0 mm
19:37 -9.1 °C -14 °C 34198.6 hPa ENE 6.3 km/h 9.8 km/h 56 % 0 mm
19:42 -9.1 °C -14 °C 34198.6 hPa ENE 6.3 km/h 9.8 km/h 56 % 0 mm
19:45 -11.4 °C -14.3 °C 34256.2 hPa SSW 2.6 km/h 5.1 km/h 70 % 0 mm
19:47 -9.1 °C -14 °C 34198.6 hPa ENE 6.3 km/h 9.8 km/h 56 % 0 mm
19:52 -9.1 °C -14 °C 34198.6 hPa ENE 6.3 km/h 9.8 km/h 56 % 0 mm
19:55 -11.5 °C -14.4 °C 34256.2 hPa WSW 2.6 km/h 5.1 km/h 70 % 0 mm
19:57 -9.1 °C -14 °C 34198.6 hPa ENE 6.3 km/h 9.8 km/h 56 % 0 mm
20:02 -9.1 °C -14 °C 34198.6 hPa ENE 6.3 km/h 9.8 km/h 56 % 0 mm
20:05 -11.5 °C -15.4 °C 34256.2 hPa WSW 5.1 km/h 7.7 km/h 62 % 0 mm
20:07 -9.1 °C -14 °C 34198.6 hPa ENE 6.3 km/h 9.8 km/h 56 % 0 mm
20:12 -9.1 °C -14 °C 34198.6 hPa ENE 6.3 km/h 9.8 km/h 56 % 0 mm
20:15 -11.6 °C -15.7 °C 34256.2 hPa WSW 5.1 km/h 7.7 km/h 60 % 0 mm
20:17 -9.1 °C -14 °C 34198.6 hPa ENE 6.3 km/h 9.8 km/h 56 % 0 mm
20:22 -9.1 °C -14 °C 34198.6 hPa ENE 6.3 km/h 9.8 km/h 56 % 0 mm
20:25 -11.7 °C -16.1 °C 34256.2 hPa WSW 5.1 km/h 10.3 km/h 58 % 0 mm
20:27 -9.1 °C -14 °C 34198.6 hPa ENE 6.3 km/h 9.8 km/h 56 % 0 mm
20:32 -9.1 °C -14 °C 34198.6 hPa ENE 6.3 km/h 9.8 km/h 56 % 0 mm
20:35 -11.8 °C -16.4 °C 34256.2 hPa WSW 5.1 km/h 18.2 km/h 56 % 0 mm
20:37 -9.1 °C -14 °C 34198.6 hPa ENE 6.3 km/h 9.8 km/h 56 % 0 mm
20:45 -11.8 °C -16.5 °C 34222.3 hPa West 2.6 km/h 10.3 km/h 56 % 0 mm
20:47 -9.9 °C -14.6 °C 34222.3 hPa ENE 6 km/h 10.3 km/h 57 % 0 mm
20:52 -10 °C -14.6 °C 34222.3 hPa ENE 9 km/h 9 km/h 58 % 0 mm
20:55 -11.8 °C -16.7 °C 34256.2 hPa West 7.7 km/h 7.7 km/h 55 % 0 mm
20:57 -10 °C -14.6 °C 34222.3 hPa ENE 6 km/h 6 km/h 58 % 0 mm
21:02 -10.1 °C -14.6 °C 34222.3 hPa ENE 6 km/h 6 km/h 58 % 0 mm
21:05 -11.9 °C -16.8 °C 34256.2 hPa West 5.1 km/h 10.3 km/h 55 % 0 mm
21:07 -10.1 °C -14.5 °C 34256.2 hPa ENE 9.3 km/h 9.3 km/h 59 % 0 mm
21:12 -10.1 °C -14.5 °C 34256.2 hPa NNE 6 km/h 6 km/h 59 % 0 mm
21:15 -11.9 °C -16.9 °C 34256.2 hPa Calm   7.7 km/h 54 % 0 mm
21:17 -10.1 °C -14.3 °C 34256.2 hPa ENE 6 km/h   60 % 0 mm
21:22 -10.2 °C -14.3 °C 34256.2 hPa ENE 9 km/h 9 km/h 61 % 0 mm
21:25 -11.9 °C -16.9 °C 34256.2 hPa WSW 2.6 km/h 12.9 km/h 54 % 0 mm
21:27 -10.2 °C -14.3 °C 34256.2 hPa ENE 6.3 km/h 6.3 km/h 61 % 0 mm
21:32 -10.2 °C -14.1 °C 34256.2 hPa NE 11.9 km/h 11.9 km/h 63 % 0 mm
21:35 -12 °C -16.9 °C 34256.2 hPa WNW 5.1 km/h 5.1 km/h 54 % 0 mm
21:37 -10.3 °C -14.1 °C 34256.2 hPa NNE 9.3 km/h 9.3 km/h 64 % 0 mm
21:42 -10.4 °C -14.2 °C 34256.2 hPa NNE 9 km/h 9 km/h 63 % 0 mm
21:45 -12.1 °C -16.9 °C 34256.2 hPa Calm   2.6 km/h 55 % 0 mm
21:47 -10.4 °C -14.1 °C 34256.2 hPa NNE 9 km/h 9 km/h 64 % 0 mm
21:52 -10.5 °C -14.2 °C 34256.2 hPa NNE 9 km/h 9 km/h 64 % 0 mm
21:55 -12.2 °C -17 °C 34222.3 hPa Calm   2.6 km/h 55 % 0 mm
21:57 -10.6 °C -14.3 °C 34256.2 hPa NNE 6 km/h 6 km/h 64 % 0 mm
22:02 -10.6 °C -14.3 °C 34256.2 hPa ENE 9 km/h 9 km/h 64 % 0 mm
22:05 -12.3 °C -17.1 °C 34222.3 hPa West 2.6 km/h 5.1 km/h 55 % 0 mm
22:07 -10.7 °C -14.3 °C 34256.2 hPa NNE 11.9 km/h 11.9 km/h 64 % 0 mm
22:12 -10.7 °C -14.2 °C 34256.2 hPa NE 6 km/h 6 km/h 65 % 0 mm
22:15 -12.4 °C -17.1 °C 34222.3 hPa WSW 2.6 km/h 5.1 km/h 56 % 0 mm
22:22 -10.7 °C -14.3 °C 34256.2 hPa ENE 9 km/h 9 km/h 65 % 0 mm
22:25 -12.3 °C -17 °C 34256.2 hPa WSW 2.6 km/h 7.7 km/h 56 % 0 mm
22:27 -10.8 °C -14.2 °C 34256.2 hPa Calm     66 % 0 mm
22:32 -10.9 °C -14.4 °C 34256.2 hPa SW 3.1 km/h   65 % 0 mm
22:35 -12.4 °C -17.1 °C 34256.2 hPa SW 5.1 km/h 5.1 km/h 56 % 0 mm
22:37 -11 °C -14.4 °C 34256.2 hPa Calm     66 % 0 mm
22:42 -11 °C -14.4 °C 34256.2 hPa Calm     66 % 0 mm
22:45 -12.4 °C -17.1 °C 34222.3 hPa Calm   2.6 km/h 56 % 0 mm
22:47 -11 °C -14.3 °C 34256.2 hPa ENE 8 km/h 8 km/h 67 % 0 mm
22:52 -11 °C -14.3 °C 34256.2 hPa East 15 km/h 15 km/h 67 % 0 mm
22:55 -12.3 °C -17 °C 34256.2 hPa South 2.6 km/h 5.1 km/h 56 % 0 mm
22:57 -11 °C -14.2 °C 34256.2 hPa ENE 15 km/h 15 km/h 68 % 0 mm
23:02 -11.1 °C -14.2 °C 34256.2 hPa ENE 9.3 km/h 9.3 km/h 69 % 0 mm
23:05 -12.3 °C -17.1 °C 34256.2 hPa Calm   2.6 km/h 55 % 0 mm
23:07 -11.1 °C -14.2 °C 34256.2 hPa East 11.9 km/h 11.9 km/h 69 % 0 mm
23:12 -11.1 °C -14.2 °C 34256.2 hPa ESE 9 km/h 9 km/h 69 % 0 mm
23:15 -12.3 °C -17.1 °C 34256.2 hPa Calm   5.1 km/h 55 % 0 mm
23:17 -11.2 °C -14.2 °C 34256.2 hPa Calm     69 % 0 mm
23:22 -11.2 °C -14.3 °C 34256.2 hPa NW 3.1 km/h 3.1 km/h 69 % 0 mm
23:25 -12.3 °C -17 °C 34256.2 hPa NW 5.1 km/h 5.1 km/h 56 % 0 mm
23:27 -11.3 °C -14.3 °C 34256.2 hPa NW 3.1 km/h 3.7 km/h 69 % 0 mm
23:32 -11.3 °C -14.3 °C 34256.2 hPa West 11.9 km/h 11.9 km/h 69 % 0 mm
23:35 -12.5 °C -17.1 °C 34256.2 hPa Calm   5.1 km/h 56 % 0 mm
23:37 -11.2 °C -13.9 °C 34256.2 hPa East 9 km/h 9 km/h 72 % 0 mm
23:42 -11.2 °C -13.9 °C 34256.2 hPa ENE 9 km/h 9 km/h 72 % 0 mm
23:45 -12.6 °C -17.2 °C 34256.2 hPa Calm   10.3 km/h 56 % 0 mm
23:47 -11.2 °C -13.9 °C 34256.2 hPa Calm     72 % 0 mm
23:52 -11.2 °C -13.9 °C 34256.2 hPa WSW 3.1 km/h 4.2 km/h 72 % 0 mm
23:55 -12.6 °C -17.2 °C 34256.2 hPa SW 2.6 km/h 7.7 km/h 56 % 0 mm
23:57 -11.2 °C -14.2 °C 34256.2 hPa SSE 4.2 km/h 4.2 km/h 70 % 0 mm
Meteo Sesrovires
Elogis d' Weather Underground - 1.5 mb

Guio original per  Jim McMurry - jmcmurry@mwt.net Adaptat per a la plantilla per  Wim van der Kuil - Leuven-Template.eu

Trobareu la nostra informacio del temps tambe a:

Weather Underground

AWEKAS